createdAt,value
2022-09-11T00:00:53.465Z,52.90
2022-09-11T00:01:53.477Z,54.60
2022-09-11T00:02:53.467Z,54.50
2022-09-11T00:03:53.396Z,54.20
2022-09-11T00:04:53.393Z,54.90
2022-09-11T00:05:53.407Z,54.40
2022-09-11T00:06:53.363Z,54.20
2022-09-11T00:07:53.353Z,53.90
2022-09-11T00:08:53.337Z,54.80
2022-09-11T00:09:53.317Z,54.70
2022-09-11T00:10:53.337Z,52.80
2022-09-11T00:11:53.289Z,55.20
2022-09-11T00:12:53.277Z,55.70
2022-09-11T00:13:53.267Z,54.80
2022-09-11T00:14:53.284Z,57.00
2022-09-11T00:15:53.312Z,55.90
2022-09-11T00:16:53.233Z,58.70
2022-09-11T00:17:53.215Z,58.80
2022-09-11T00:18:53.200Z,59.40
2022-09-11T00:19:53.179Z,56.20
2022-09-11T00:20:53.197Z,59.50
2022-09-11T00:21:53.156Z,59.10
2022-09-11T00:22:53.189Z,62.20
2022-09-11T00:23:53.131Z,61.10
2022-09-11T00:24:53.121Z,61.00
2022-09-11T00:25:53.121Z,62.60
2022-09-11T00:26:53.110Z,63.30
2022-09-11T00:27:53.073Z,61.70
2022-09-11T00:28:53.061Z,63.10
2022-09-11T00:29:53.041Z,65.30
2022-09-11T00:30:53.085Z,65.30
2022-09-11T00:31:53.018Z,63.70
2022-09-11T00:32:53.012Z,63.80
2022-09-11T00:33:53.003Z,65.70
2022-09-11T00:34:52.980Z,65.30
2022-09-11T00:35:52.982Z,66.90
2022-09-11T00:36:52.952Z,67.30
2022-09-11T00:37:52.933Z,67.30
2022-09-11T00:38:52.922Z,66.60
2022-09-11T00:39:52.915Z,67.50
2022-09-11T00:40:52.923Z,67.30
2022-09-11T00:41:52.901Z,67.10
2022-09-11T00:42:52.874Z,65.30
2022-09-11T00:43:52.851Z,66.90
2022-09-11T00:44:52.844Z,66.90
2022-09-11T00:45:52.899Z,65.90
2022-09-11T00:46:52.835Z,64.40
2022-09-11T00:47:52.795Z,64.20
2022-09-11T00:48:52.811Z,66.80
2022-09-11T00:49:52.786Z,70.20
2022-09-11T00:50:52.816Z,66.60
2022-09-11T00:51:52.745Z,64.60
2022-09-11T00:52:53.291Z,66.80
2022-09-11T00:53:52.715Z,67.90
2022-09-11T00:54:52.726Z,64.40
2022-09-11T00:55:52.716Z,67.60
2022-09-11T00:56:52.684Z,64.60
2022-09-11T00:57:52.664Z,66.30
2022-09-11T00:58:52.646Z,68.60
2022-09-11T00:59:52.636Z,63.50
2022-09-11T01:00:52.688Z,61.60
2022-09-11T01:01:52.644Z,63.40
2022-09-11T01:02:52.598Z,59.20
2022-09-11T01:03:52.591Z,64.40
2022-09-11T01:04:52.585Z,63.30
2022-09-11T01:05:52.576Z,62.90
2022-09-11T01:06:52.553Z,61.70
2022-09-11T01:07:52.528Z,63.10
2022-09-11T01:08:52.563Z,62.30
2022-09-11T01:09:52.496Z,63.30
2022-09-11T01:10:52.516Z,66.40
2022-09-11T01:11:52.477Z,68.10
2022-09-11T01:12:52.469Z,65.80
2022-09-11T01:13:52.448Z,63.80
2022-09-11T01:14:52.429Z,64.40
2022-09-11T01:15:52.452Z,62.10
2022-09-11T01:16:52.408Z,67.00
2022-09-11T01:17:52.407Z,61.60
2022-09-11T01:18:52.380Z,61.00
2022-09-11T01:19:52.360Z,65.00
2022-09-11T01:20:52.391Z,62.10
2022-09-11T01:21:52.365Z,61.40
2022-09-11T01:22:52.327Z,60.60
2022-09-11T01:23:52.309Z,60.80
2022-09-11T01:24:52.333Z,59.40
2022-09-11T01:25:52.294Z,63.90
2022-09-11T01:26:52.276Z,65.20
2022-09-11T01:27:52.260Z,57.90
2022-09-11T01:28:52.242Z,58.00
2022-09-11T01:29:52.229Z,59.40
2022-09-11T01:30:52.243Z,57.40
2022-09-11T01:31:52.207Z,54.60
2022-09-11T01:32:52.203Z,61.70
2022-09-11T01:33:52.173Z,57.60
2022-09-11T01:34:52.164Z,62.50
2022-09-11T01:35:52.164Z,54.80
2022-09-11T01:36:52.130Z,56.20
2022-09-11T01:37:52.114Z,59.00
2022-09-11T01:38:52.104Z,57.10
2022-09-11T01:39:52.177Z,57.70
2022-09-11T01:40:52.105Z,55.80
2022-09-11T01:41:52.062Z,57.10
2022-09-11T01:42:52.052Z,56.00
2022-09-11T01:43:52.047Z,55.70
2022-09-11T01:44:52.025Z,58.90
2022-09-11T01:45:52.117Z,60.30
2022-09-11T01:46:52.015Z,57.10
2022-09-11T01:47:51.975Z,53.90
2022-09-11T01:48:51.968Z,54.00
2022-09-11T01:49:51.948Z,56.20
2022-09-11T01:50:51.966Z,53.30
2022-09-11T01:51:51.976Z,52.70
2022-09-11T01:52:51.926Z,54.40
2022-09-11T01:53:52.037Z,53.20
2022-09-11T01:54:51.887Z,53.60
2022-09-11T01:55:51.895Z,52.10
2022-09-11T01:56:51.857Z,53.90
2022-09-11T01:57:51.838Z,55.50
2022-09-11T01:58:51.836Z,53.90
2022-09-11T01:59:51.818Z,54.50
2022-09-11T02:00:51.854Z,52.50
2022-09-11T02:01:51.857Z,51.40
2022-09-11T02:02:51.779Z,52.00
2022-09-11T02:03:51.759Z,59.60
2022-09-11T02:04:51.749Z,54.00
2022-09-11T02:05:51.760Z,53.70
2022-09-11T02:06:51.722Z,52.00
2022-09-11T02:07:51.710Z,55.60
2022-09-11T02:08:51.700Z,54.60
2022-09-11T02:09:51.801Z,55.70
2022-09-11T02:10:51.683Z,57.90
2022-09-11T02:11:51.670Z,52.40
2022-09-11T02:12:51.661Z,53.60
2022-09-11T02:13:51.621Z,54.90
2022-09-11T02:14:51.639Z,51.00
2022-09-11T02:15:51.620Z,53.90
2022-09-11T02:16:51.581Z,51.50
2022-09-11T02:17:51.569Z,53.00
2022-09-11T02:18:51.563Z,50.40
2022-09-11T02:19:51.582Z,51.70
2022-09-11T02:20:51.562Z,53.00
2022-09-11T02:21:51.542Z,52.50
2022-09-11T02:22:51.509Z,54.80
2022-09-11T02:23:51.493Z,51.00
2022-09-11T02:24:51.505Z,52.60
2022-09-11T02:25:51.463Z,48.40
2022-09-11T02:26:51.455Z,51.20
2022-09-11T02:27:51.434Z,50.90
2022-09-11T02:28:51.446Z,50.70
2022-09-11T02:29:51.434Z,51.50
2022-09-11T02:30:51.432Z,51.10
2022-09-11T02:31:51.405Z,47.50
2022-09-11T02:32:51.392Z,50.70
2022-09-11T02:33:51.352Z,51.80
2022-09-11T02:34:51.367Z,54.10
2022-09-11T02:35:51.326Z,52.20
2022-09-11T02:36:51.314Z,52.80
2022-09-11T02:37:51.304Z,51.50
2022-09-11T02:38:51.286Z,51.00
2022-09-11T02:39:51.346Z,52.50
2022-09-11T02:40:51.318Z,51.50
2022-09-11T02:41:51.247Z,51.20
2022-09-11T02:42:51.237Z,50.70
2022-09-11T02:43:51.218Z,53.00
2022-09-11T02:44:51.276Z,55.50
2022-09-11T02:45:51.239Z,53.80
2022-09-11T02:46:51.178Z,48.80
2022-09-11T02:47:51.157Z,51.60
2022-09-11T02:48:51.160Z,52.60
2022-09-11T02:49:51.138Z,55.30
2022-09-11T02:50:51.171Z,51.20
2022-09-11T02:51:51.109Z,52.30
2022-09-11T02:52:51.099Z,52.50
2022-09-11T02:53:51.078Z,53.60
2022-09-11T02:54:51.089Z,52.40
2022-09-11T02:55:51.050Z,57.30
2022-09-11T02:56:51.040Z,61.50
2022-09-11T02:57:51.027Z,54.90
2022-09-11T02:58:51.018Z,60.00
2022-09-11T02:59:51.020Z,56.30
2022-09-11T03:00:51.033Z,56.70
2022-09-11T03:01:51.002Z,58.10
2022-09-11T03:02:50.974Z,58.00
2022-09-11T03:03:50.941Z,61.40
2022-09-11T03:04:50.971Z,58.00
2022-09-11T03:05:50.919Z,56.80
2022-09-11T03:06:50.908Z,60.80
2022-09-11T03:07:50.896Z,58.70
2022-09-11T03:08:50.883Z,59.20
2022-09-11T03:09:51.003Z,60.70
2022-09-11T03:10:50.855Z,61.70
2022-09-11T03:11:50.831Z,60.00
2022-09-11T03:12:50.831Z,60.10
2022-09-11T03:13:50.811Z,59.00
2022-09-11T03:14:50.825Z,59.10
2022-09-11T03:15:50.781Z,63.00
2022-09-11T03:16:50.764Z,66.90
2022-09-11T03:17:50.753Z,60.20
2022-09-11T03:18:50.743Z,62.30
2022-09-11T03:19:50.754Z,60.90
2022-09-11T03:20:50.712Z,59.60
2022-09-11T03:21:50.704Z,65.10
2022-09-11T03:22:50.702Z,69.60
2022-09-11T03:23:50.675Z,67.50
2022-09-11T03:24:50.714Z,70.90
2022-09-11T03:25:50.655Z,64.80
2022-09-11T03:26:50.625Z,67.80
2022-09-11T03:27:50.647Z,65.30
2022-09-11T03:28:50.605Z,62.10
2022-09-11T03:29:50.616Z,63.40
2022-09-11T03:30:50.587Z,66.00
2022-09-11T03:31:50.613Z,65.50
2022-09-11T03:32:50.546Z,63.20
2022-09-11T03:33:50.537Z,66.50
2022-09-11T03:34:50.557Z,73.60
2022-09-11T03:35:50.527Z,71.00
2022-09-11T03:36:50.499Z,70.70
2022-09-11T03:37:50.490Z,68.70
2022-09-11T03:38:50.468Z,68.70
2022-09-11T03:39:50.500Z,70.40
2022-09-11T03:40:50.467Z,72.20
2022-09-11T03:41:50.436Z,75.10
2022-09-11T03:42:50.418Z,78.80
2022-09-11T03:43:50.415Z,82.20
2022-09-11T03:44:50.388Z,79.70
2022-09-11T03:45:50.429Z,75.20
2022-09-11T03:46:50.359Z,73.10
2022-09-11T03:47:50.390Z,73.70
2022-09-11T03:48:50.337Z,74.00
2022-09-11T03:49:50.323Z,72.70
2022-09-11T03:50:50.358Z,76.40
2022-09-11T03:51:50.299Z,76.10
2022-09-11T03:52:50.280Z,74.20
2022-09-11T03:53:50.280Z,72.80
2022-09-11T03:54:50.251Z,75.80
2022-09-11T03:55:50.278Z,78.10
2022-09-11T03:56:50.220Z,80.30
2022-09-11T03:57:50.222Z,84.00
2022-09-11T03:58:50.203Z,78.80
2022-09-11T03:59:50.192Z,78.90
2022-09-11T04:00:50.227Z,74.40
2022-09-11T04:01:50.219Z,78.10
2022-09-11T04:02:50.150Z,79.20
2022-09-11T04:03:50.132Z,77.90
2022-09-11T04:04:50.180Z,74.70
2022-09-11T04:05:50.163Z,83.90
2022-09-11T04:06:50.102Z,76.10
2022-09-11T04:07:50.080Z,76.20
2022-09-11T04:08:50.063Z,71.70
2022-09-11T04:09:50.053Z,76.40
2022-09-11T04:10:50.086Z,76.10
2022-09-11T04:11:50.030Z,77.70
2022-09-11T04:12:50.018Z,73.90
2022-09-11T04:13:50.007Z,78.80
2022-09-11T04:14:49.975Z,78.30
2022-09-11T04:15:50.001Z,76.40
2022-09-11T04:16:49.950Z,75.50
2022-09-11T04:17:49.953Z,79.00
2022-09-11T04:18:49.926Z,80.20
2022-09-11T04:19:49.913Z,77.70
2022-09-11T04:20:49.928Z,74.60
2022-09-11T04:21:49.906Z,77.60
2022-09-11T04:22:49.868Z,81.60
2022-09-11T04:23:49.864Z,80.20
2022-09-11T04:24:49.837Z,81.60
2022-09-11T04:25:49.855Z,85.00
2022-09-11T04:26:49.816Z,83.60
2022-09-11T04:27:49.805Z,80.80
2022-09-11T04:28:49.786Z,77.80
2022-09-11T04:29:49.777Z,82.60
2022-09-11T04:30:49.777Z,76.20
2022-09-11T04:31:49.778Z,79.80
2022-09-11T04:32:49.728Z,78.50
2022-09-11T04:33:49.718Z,76.10
2022-09-11T04:34:49.699Z,73.30
2022-09-11T04:35:49.720Z,72.30
2022-09-11T04:36:49.680Z,69.90
2022-09-11T04:37:49.669Z,74.60
2022-09-11T04:38:49.650Z,70.80
2022-09-11T04:39:49.659Z,77.60
2022-09-11T04:40:49.658Z,73.50
2022-09-11T04:41:49.626Z,77.50
2022-09-11T04:42:49.615Z,76.50
2022-09-11T04:43:49.590Z,79.00
2022-09-11T04:44:49.560Z,72.90
2022-09-11T04:45:49.610Z,73.50
2022-09-11T04:46:49.540Z,71.20
2022-09-11T04:47:49.532Z,75.60
2022-09-11T04:48:49.512Z,74.70
2022-09-11T04:49:49.501Z,71.50
2022-09-11T04:50:49.528Z,69.30
2022-09-11T04:51:49.490Z,68.70
2022-09-11T04:52:49.464Z,67.80
2022-09-11T04:53:49.452Z,68.00
2022-09-11T04:54:49.430Z,69.20
2022-09-11T04:55:49.442Z,75.40
2022-09-11T04:56:49.424Z,65.60
2022-09-11T04:57:49.401Z,69.00
2022-09-11T04:58:49.389Z,71.10
2022-09-11T04:59:49.410Z,64.60
2022-09-11T05:00:49.399Z,69.60
2022-09-11T05:01:49.397Z,64.90
2022-09-11T05:02:49.326Z,65.30
2022-09-11T05:03:49.313Z,66.40
2022-09-11T05:04:49.331Z,67.20
2022-09-11T05:05:49.294Z,65.40
2022-09-11T05:06:49.264Z,69.60
2022-09-11T05:07:49.265Z,65.00
2022-09-11T05:08:49.244Z,69.20
2022-09-11T05:09:49.277Z,69.20
2022-09-11T05:10:49.218Z,68.00
2022-09-11T05:11:49.205Z,69.30
2022-09-11T05:12:49.195Z,67.60
2022-09-11T05:13:49.199Z,64.80
2022-09-11T05:14:49.184Z,69.10
2022-09-11T05:15:49.207Z,66.50
2022-09-11T05:16:49.164Z,66.30
2022-09-11T05:17:49.116Z,66.70
2022-09-11T05:18:49.103Z,68.00
2022-09-11T05:19:49.127Z,69.90
2022-09-11T05:20:49.078Z,71.50
2022-09-11T05:21:49.077Z,72.30
2022-09-11T05:22:49.047Z,72.10
2022-09-11T05:23:49.038Z,66.80
2022-09-11T05:24:49.048Z,65.20
2022-09-11T05:25:49.008Z,67.10
2022-09-11T05:26:48.989Z,71.20
2022-09-11T05:27:48.989Z,70.50
2022-09-11T05:28:48.966Z,67.00
2022-09-11T05:29:48.989Z,68.10
2022-09-11T05:30:48.949Z,72.40
2022-09-11T05:31:48.946Z,67.70
2022-09-11T05:32:48.933Z,68.90
2022-09-11T05:33:48.900Z,67.60
2022-09-11T05:34:48.915Z,68.80
2022-09-11T05:35:48.889Z,69.50
2022-09-11T05:36:48.879Z,69.80
2022-09-11T05:37:48.880Z,67.50
2022-09-11T05:38:48.829Z,63.80
2022-09-11T05:39:48.889Z,65.10
2022-09-11T05:40:48.801Z,63.30
2022-09-11T05:41:48.791Z,60.50
2022-09-11T05:42:48.782Z,60.80
2022-09-11T05:43:48.766Z,60.10
2022-09-11T05:44:48.771Z,61.60
2022-09-11T05:45:48.775Z,68.30
2022-09-11T05:46:48.726Z,67.10
2022-09-11T05:47:48.715Z,71.10
2022-09-11T05:48:48.694Z,64.90
2022-09-11T05:49:48.773Z,70.30
2022-09-11T05:50:48.673Z,68.90
2022-09-11T05:51:48.703Z,73.30
2022-09-11T05:52:48.641Z,115.30
2022-09-11T05:53:48.642Z,61.90
2022-09-11T05:54:48.633Z,59.10
2022-09-11T05:55:48.622Z,65.20
2022-09-11T05:56:48.593Z,65.30
2022-09-11T05:57:48.574Z,59.50
2022-09-11T05:58:48.562Z,55.50
2022-09-11T05:59:48.588Z,57.40
2022-09-11T06:00:48.535Z,54.60
2022-09-11T06:01:48.565Z,54.60
2022-09-11T06:02:48.505Z,52.90
2022-09-11T06:03:48.510Z,62.60
2022-09-11T06:04:48.495Z,68.60
2022-09-11T06:05:48.466Z,64.50
2022-09-11T06:06:48.447Z,57.00
2022-09-11T06:07:48.466Z,58.90
2022-09-11T06:08:48.446Z,55.30
2022-09-11T06:09:48.453Z,59.90
2022-09-11T06:10:48.395Z,54.40
2022-09-11T06:11:48.388Z,58.50
2022-09-11T06:12:48.370Z,58.50
2022-09-11T06:13:48.367Z,57.70
2022-09-11T06:14:48.358Z,55.10
2022-09-11T06:15:48.327Z,54.80
2022-09-11T06:16:48.424Z,54.20
2022-09-11T06:17:48.326Z,74.80
2022-09-11T06:18:48.285Z,64.30
2022-09-11T06:19:48.301Z,58.30
2022-09-11T06:20:48.258Z,61.30
2022-09-11T06:21:48.239Z,56.00
2022-09-11T06:22:48.232Z,56.30
2022-09-11T06:23:48.234Z,57.30
2022-09-11T06:24:48.233Z,58.40
2022-09-11T06:25:48.190Z,58.20
2022-09-11T06:26:48.169Z,70.40
2022-09-11T06:27:48.171Z,62.00
2022-09-11T06:28:48.149Z,70.70
2022-09-11T06:29:48.172Z,56.40
2022-09-11T06:30:48.189Z,57.10
2022-09-11T06:31:48.132Z,57.50
2022-09-11T06:32:48.103Z,55.10
2022-09-11T06:33:48.112Z,55.90
2022-09-11T06:34:48.068Z,55.40
2022-09-11T06:35:48.058Z,54.40
2022-09-11T06:36:51.817Z,57.40
2022-09-11T06:37:48.031Z,55.10
2022-09-11T06:38:48.053Z,53.10
2022-09-11T06:39:48.044Z,56.20
2022-09-11T06:40:47.989Z,61.40
2022-09-11T06:41:48.022Z,58.60
2022-09-11T06:42:47.964Z,62.50
2022-09-11T06:43:47.972Z,62.90
2022-09-11T06:44:50.739Z,58.30
2022-09-11T06:45:47.939Z,59.70
2022-09-11T06:46:47.914Z,58.60
2022-09-11T06:47:47.893Z,55.80
2022-09-11T06:48:47.906Z,57.40
2022-09-11T06:49:47.866Z,56.80
2022-09-11T06:50:47.845Z,56.20
2022-09-11T06:51:47.840Z,58.20
2022-09-11T06:52:47.815Z,58.00
2022-09-11T06:53:47.837Z,55.40
2022-09-11T06:54:47.805Z,57.70
2022-09-11T06:55:47.785Z,57.10
2022-09-11T06:56:47.776Z,61.50
2022-09-11T06:57:47.767Z,59.90
2022-09-11T06:58:47.771Z,59.40
2022-09-11T06:59:47.786Z,57.90
2022-09-11T07:00:47.746Z,55.80
2022-09-11T07:01:47.882Z,58.80
2022-09-11T07:02:47.689Z,55.00
2022-09-11T07:03:47.716Z,56.10
2022-09-11T07:04:47.657Z,55.80
2022-09-11T07:05:47.700Z,52.50
2022-09-11T07:06:47.663Z,52.20
2022-09-11T07:07:47.638Z,53.10
2022-09-11T07:08:47.597Z,51.80
2022-09-11T07:09:47.619Z,51.40
2022-09-11T07:10:47.579Z,50.60
2022-09-11T07:11:47.568Z,50.90
2022-09-11T07:12:47.558Z,48.90
2022-09-11T07:13:47.559Z,48.60
2022-09-11T07:14:47.551Z,48.10
2022-09-11T07:15:47.539Z,48.50
2022-09-11T07:16:47.549Z,48.80
2022-09-11T07:17:47.479Z,49.20
2022-09-11T07:18:47.470Z,52.80
2022-09-11T07:19:47.479Z,49.70
2022-09-11T07:20:47.440Z,49.00
2022-09-11T07:21:47.430Z,49.00
2022-09-11T07:22:47.420Z,49.10
2022-09-11T07:23:47.426Z,47.90
2022-09-11T07:24:47.412Z,47.30
2022-09-11T07:25:47.380Z,48.50
2022-09-11T07:26:47.359Z,47.20
2022-09-11T07:27:47.352Z,46.90
2022-09-11T07:28:47.342Z,45.60
2022-09-11T07:29:47.344Z,45.60
2022-09-11T07:30:47.364Z,46.50
2022-09-11T07:31:47.309Z,47.00
2022-09-11T07:32:47.281Z,46.40
2022-09-11T07:33:47.265Z,47.40
2022-09-11T07:34:47.273Z,45.40
2022-09-11T07:35:47.233Z,46.50
2022-09-11T07:36:47.223Z,44.80
2022-09-11T07:37:50.708Z,45.50
2022-09-11T07:38:47.203Z,44.30
2022-09-11T07:39:47.267Z,44.70
2022-09-11T07:40:47.174Z,43.80
2022-09-11T07:41:47.154Z,45.20
2022-09-11T07:42:47.147Z,47.70
2022-09-11T07:43:47.134Z,50.50
2022-09-11T07:44:47.135Z,48.80
2022-09-11T07:45:47.129Z,47.80
2022-09-11T07:46:47.089Z,47.90
2022-09-11T07:47:47.081Z,49.40
2022-09-11T07:48:47.067Z,49.40
2022-09-11T07:49:47.086Z,51.90
2022-09-11T07:50:47.037Z,52.00
2022-09-11T07:51:47.027Z,51.70
2022-09-11T07:52:47.008Z,50.90
2022-09-11T07:53:46.999Z,51.50
2022-09-11T07:54:47.010Z,47.00
2022-09-11T07:55:46.962Z,50.00
2022-09-11T07:56:46.954Z,49.80
2022-09-11T07:57:46.935Z,47.70
2022-09-11T07:58:46.927Z,49.40
2022-09-11T07:59:46.932Z,48.90
2022-09-11T08:00:46.897Z,56.40
2022-09-11T08:01:46.908Z,55.80
2022-09-11T08:02:46.884Z,57.70
2022-09-11T08:03:46.849Z,56.10
2022-09-11T08:04:46.871Z,51.50
2022-09-11T08:05:46.832Z,50.80
2022-09-11T08:06:46.822Z,52.30
2022-09-11T08:07:46.800Z,50.20
2022-09-11T08:08:46.790Z,49.80
2022-09-11T08:09:46.820Z,48.70
2022-09-11T08:10:46.762Z,49.40
2022-09-11T08:11:46.765Z,51.90
2022-09-11T08:12:46.752Z,49.90
2022-09-11T08:13:46.741Z,50.80
2022-09-11T08:14:46.773Z,51.60
2022-09-11T08:15:46.709Z,49.80
2022-09-11T08:16:46.715Z,50.30
2022-09-11T08:17:46.662Z,49.20
2022-09-11T08:18:46.679Z,47.90
2022-09-11T08:19:46.662Z,47.20
2022-09-11T08:20:46.624Z,47.50
2022-09-11T08:21:46.623Z,46.60
2022-09-11T08:22:46.599Z,46.80
2022-09-11T08:23:46.589Z,48.30
2022-09-11T08:24:46.600Z,46.20
2022-09-11T08:25:46.611Z,48.10
2022-09-11T08:26:49.002Z,47.00
2022-09-11T08:27:46.534Z,46.10
2022-09-11T08:28:46.525Z,45.60
2022-09-11T08:29:46.527Z,47.90
2022-09-11T08:30:46.493Z,45.40
2022-09-11T08:31:46.515Z,46.50
2022-09-11T08:32:46.467Z,46.10
2022-09-11T08:33:46.445Z,47.00
2022-09-11T08:34:46.463Z,44.10
2022-09-11T08:35:46.434Z,45.60
2022-09-11T08:36:46.437Z,43.70
2022-09-11T08:37:46.399Z,43.00
2022-09-11T08:38:46.386Z,43.40
2022-09-11T08:39:46.429Z,42.80
2022-09-11T08:40:46.360Z,43.40
2022-09-11T08:41:46.343Z,43.30
2022-09-11T08:42:46.338Z,43.50
2022-09-11T08:43:46.326Z,41.70
2022-09-11T08:44:46.347Z,40.80
2022-09-11T08:45:46.316Z,41.20
2022-09-11T08:46:46.278Z,40.20
2022-09-11T08:47:46.269Z,39.80
2022-09-11T08:48:46.257Z,40.80
2022-09-11T08:49:46.271Z,42.20
2022-09-11T08:50:46.219Z,40.60
2022-09-11T08:51:46.200Z,42.00
2022-09-11T08:52:46.202Z,39.70
2022-09-11T08:53:46.189Z,38.20
2022-09-11T08:54:46.192Z,40.40
2022-09-11T08:55:46.149Z,39.50
2022-09-11T08:56:46.138Z,38.20
2022-09-11T08:57:46.137Z,39.30
2022-09-11T08:58:46.122Z,40.80
2022-09-11T08:59:46.121Z,40.20
2022-09-11T09:00:46.081Z,42.70
2022-09-11T09:01:46.102Z,41.80
2022-09-11T09:02:46.061Z,40.10
2022-09-11T09:03:46.041Z,38.60
2022-09-11T09:04:46.051Z,41.30
2022-09-11T09:05:46.023Z,40.20
2022-09-11T09:06:46.000Z,38.60
2022-09-11T09:07:45.982Z,39.10
2022-09-11T09:08:45.972Z,37.80
2022-09-11T09:09:46.002Z,38.60
2022-09-11T09:10:45.944Z,37.40
2022-09-11T09:11:45.931Z,37.80
2022-09-11T09:12:45.926Z,37.50
2022-09-11T09:13:45.901Z,35.50
2022-09-11T09:14:45.921Z,36.80
2022-09-11T09:15:45.924Z,36.10
2022-09-11T09:16:45.863Z,37.20
2022-09-11T09:17:45.844Z,36.60
2022-09-11T09:18:45.834Z,34.90
2022-09-11T09:19:45.845Z,37.10
2022-09-11T09:20:45.833Z,34.90
2022-09-11T09:21:45.796Z,36.00
2022-09-11T09:22:45.783Z,35.30
2022-09-11T09:23:45.765Z,35.70
2022-09-11T09:24:45.776Z,37.10
2022-09-11T09:25:45.891Z,35.80
2022-09-11T09:26:45.728Z,37.00
2022-09-11T09:27:45.713Z,37.40
2022-09-11T09:28:45.708Z,36.00
2022-09-11T09:29:45.706Z,35.50
2022-09-11T09:30:45.735Z,34.80
2022-09-11T09:31:45.656Z,34.00
2022-09-11T09:32:45.647Z,37.50
2022-09-11T09:33:45.657Z,37.40
2022-09-11T09:34:45.666Z,35.00
2022-09-11T09:35:45.622Z,35.80
2022-09-11T09:36:45.596Z,35.80
2022-09-11T09:37:45.588Z,36.30
2022-09-11T09:38:45.565Z,36.20
2022-09-11T09:39:45.618Z,38.20
2022-09-11T09:40:45.538Z,36.70
2022-09-11T09:41:45.530Z,37.20
2022-09-11T09:42:45.508Z,36.40
2022-09-11T09:43:45.508Z,37.70
2022-09-11T09:44:45.510Z,38.40
2022-09-11T09:45:45.540Z,37.60
2022-09-11T09:46:50.212Z,36.90
2022-09-11T09:47:46.449Z,38.30
2022-09-11T09:48:45.431Z,39.50
2022-09-11T09:49:45.437Z,38.70
2022-09-11T09:50:45.422Z,41.00
2022-09-11T09:51:45.381Z,40.40
2022-09-11T09:52:45.381Z,41.60
2022-09-11T09:53:45.351Z,40.90
2022-09-11T09:54:45.379Z,41.20
2022-09-11T09:55:45.338Z,40.00
2022-09-11T09:56:45.345Z,41.10
2022-09-11T09:57:45.302Z,40.80
2022-09-11T09:58:45.295Z,40.80
2022-09-11T09:59:45.312Z,40.30
2022-09-11T10:00:45.263Z,41.00
2022-09-11T10:01:45.417Z,40.10
2022-09-11T10:02:45.243Z,42.00
2022-09-11T10:03:45.232Z,41.00
2022-09-11T10:04:45.255Z,39.00
2022-09-11T10:05:45.194Z,38.90
2022-09-11T10:06:45.184Z,39.00
2022-09-11T10:07:45.175Z,39.90
2022-09-11T10:08:45.164Z,40.90
2022-09-11T10:09:45.165Z,42.00
2022-09-11T10:10:45.137Z,41.50
2022-09-11T10:11:45.114Z,42.30
2022-09-11T10:12:45.119Z,41.40
2022-09-11T10:13:45.085Z,40.90
2022-09-11T10:14:51.558Z,40.50
2022-09-11T10:15:46.194Z,39.40
2022-09-11T10:16:45.046Z,39.40
2022-09-11T10:17:45.026Z,40.00
2022-09-11T10:18:45.166Z,40.20
2022-09-11T10:19:45.046Z,39.40
2022-09-11T10:20:45.007Z,39.00
2022-09-11T10:21:44.978Z,39.50
2022-09-11T10:22:44.967Z,38.80
2022-09-11T10:23:44.967Z,39.40
2022-09-11T10:24:44.969Z,38.10
2022-09-11T10:25:44.925Z,38.00
2022-09-11T10:26:44.918Z,37.60
2022-09-11T10:27:44.889Z,38.70
2022-09-11T10:28:44.899Z,39.00
2022-09-11T10:29:44.888Z,37.70
2022-09-11T10:30:44.894Z,38.40
2022-09-11T10:31:44.842Z,38.80
2022-09-11T10:32:44.837Z,38.40
2022-09-11T10:33:44.819Z,38.20
2022-09-11T10:34:44.850Z,37.30
2022-09-11T10:35:44.790Z,36.90
2022-09-11T10:36:44.777Z,38.90
2022-09-11T10:37:44.761Z,38.40
2022-09-11T10:38:44.945Z,39.90
2022-09-11T10:39:44.792Z,40.70
2022-09-11T10:40:44.724Z,38.40
2022-09-11T10:41:44.702Z,41.20
2022-09-11T10:42:44.692Z,39.00
2022-09-11T10:43:44.712Z,38.70
2022-09-11T10:44:44.672Z,39.60
2022-09-11T10:45:44.675Z,37.90
2022-09-11T10:46:44.662Z,37.80
2022-09-11T10:47:44.620Z,37.20
2022-09-11T10:48:44.633Z,35.70
2022-09-11T10:49:44.603Z,34.60
2022-09-11T10:50:44.593Z,36.00
2022-09-11T10:51:47.543Z,35.60
2022-09-11T10:52:44.574Z,36.80
2022-09-11T10:53:44.564Z,34.20
2022-09-11T10:54:44.558Z,34.00
2022-09-11T10:55:44.519Z,35.00
2022-09-11T10:56:44.506Z,33.70
2022-09-11T10:57:44.487Z,36.10
2022-09-11T10:58:44.625Z,37.20
2022-09-11T10:59:44.465Z,38.70
2022-09-11T11:00:44.456Z,39.70
2022-09-11T11:01:44.486Z,39.90
2022-09-11T11:02:44.424Z,40.10
2022-09-11T11:03:44.462Z,42.10
2022-09-11T11:04:44.397Z,41.90
2022-09-11T11:05:44.380Z,41.30
2022-09-11T11:06:44.368Z,41.10
2022-09-11T11:07:44.356Z,39.50
2022-09-11T11:08:44.526Z,40.10
2022-09-11T11:09:44.327Z,41.20
2022-09-11T11:10:44.319Z,41.50
2022-09-11T11:11:44.298Z,40.50
2022-09-11T11:12:44.289Z,39.70
2022-09-11T11:13:44.278Z,40.80
2022-09-11T11:14:44.295Z,41.70
2022-09-11T11:15:44.266Z,38.90
2022-09-11T11:16:44.239Z,38.70
2022-09-11T11:17:44.221Z,37.60
2022-09-11T11:18:44.311Z,39.40
2022-09-11T11:19:44.233Z,37.50
2022-09-11T11:20:44.181Z,37.50
2022-09-11T11:21:44.162Z,37.20
2022-09-11T11:22:44.161Z,36.00
2022-09-11T11:23:44.143Z,36.60
2022-09-11T11:24:44.154Z,36.10
2022-09-11T11:25:44.114Z,34.80
2022-09-11T11:26:44.102Z,35.70
2022-09-11T11:27:44.083Z,35.80
2022-09-11T11:28:44.223Z,34.10
2022-09-11T11:29:44.081Z,35.30
2022-09-11T11:30:44.050Z,37.00
2022-09-11T11:31:44.541Z,36.80
2022-09-11T11:32:44.084Z,36.20
2022-09-11T11:33:44.003Z,35.70
2022-09-11T11:34:44.028Z,35.30
2022-09-11T11:35:43.979Z,34.70
2022-09-11T11:36:43.965Z,34.20
2022-09-11T11:37:43.965Z,33.20
2022-09-11T11:38:44.102Z,32.40
2022-09-11T11:39:43.987Z,32.60
2022-09-11T11:40:43.916Z,32.50
2022-09-11T11:41:43.894Z,32.80
2022-09-11T11:42:43.885Z,32.10
2022-09-11T11:43:43.871Z,31.70
2022-09-11T11:44:43.877Z,30.60
2022-09-11T11:45:43.871Z,29.80
2022-09-11T11:46:43.828Z,29.30
2022-09-11T11:47:43.809Z,29.20
2022-09-11T11:48:43.938Z,26.40
2022-09-11T11:49:43.809Z,28.40
2022-09-11T11:50:43.778Z,27.90
2022-09-11T11:51:43.768Z,27.20
2022-09-11T11:52:43.751Z,26.80
2022-09-11T11:53:43.781Z,27.60
2022-09-11T11:54:43.717Z,25.60
2022-09-11T11:55:43.710Z,25.70
2022-09-11T11:56:43.689Z,26.10
2022-09-11T11:57:43.712Z,25.40
2022-09-11T11:58:43.746Z,25.30
2022-09-11T11:59:43.659Z,23.10
2022-09-11T12:00:43.632Z,23.80
2022-09-11T12:01:43.663Z,23.10
2022-09-11T12:02:43.621Z,23.00
2022-09-11T12:03:43.647Z,22.20
2022-09-11T12:04:43.586Z,22.10
2022-09-11T12:05:43.584Z,22.80
2022-09-11T12:06:43.576Z,22.70
2022-09-11T12:07:43.555Z,22.80
2022-09-11T12:08:43.659Z,22.90
2022-09-11T12:09:43.516Z,22.00
2022-09-11T12:10:43.506Z,22.30
2022-09-11T12:11:43.497Z,24.20
2022-09-11T12:12:43.476Z,21.20
2022-09-11T12:13:43.508Z,22.90
2022-09-11T12:14:43.456Z,22.20
2022-09-11T12:15:43.469Z,22.10
2022-09-11T12:16:43.427Z,23.70
2022-09-11T12:17:43.419Z,23.50
2022-09-11T12:18:43.663Z,22.60
2022-09-11T12:19:43.390Z,22.80
2022-09-11T12:20:43.369Z,23.60
2022-09-11T12:21:43.360Z,24.60
2022-09-11T12:22:43.348Z,23.20
2022-09-11T12:23:43.368Z,23.50
2022-09-11T12:24:43.320Z,23.50
2022-09-11T12:25:43.320Z,21.80
2022-09-11T12:26:43.291Z,21.70
2022-09-11T12:27:43.282Z,21.90
2022-09-11T12:28:43.423Z,20.80
2022-09-11T12:29:43.253Z,20.70
2022-09-11T12:30:43.246Z,19.90
2022-09-11T12:31:43.271Z,20.80
2022-09-11T12:32:43.233Z,20.90
2022-09-11T12:33:43.224Z,20.60
2022-09-11T12:34:43.187Z,20.90
2022-09-11T12:35:43.174Z,20.20
2022-09-11T12:36:43.155Z,20.90
2022-09-11T12:37:43.148Z,20.80
2022-09-11T12:38:43.225Z,20.60
2022-09-11T12:39:43.189Z,20.50
2022-09-11T12:40:43.116Z,18.70
2022-09-11T12:41:43.094Z,18.70
2022-09-11T12:42:43.075Z,19.10
2022-09-11T12:43:43.100Z,19.90
2022-09-11T12:44:43.048Z,18.90
2022-09-11T12:45:43.078Z,19.30
2022-09-11T12:46:43.026Z,18.40
2022-09-11T12:47:43.019Z,18.20
2022-09-11T12:48:43.133Z,18.20
2022-09-11T12:49:42.990Z,18.80
2022-09-11T12:50:42.969Z,17.10
2022-09-11T12:51:42.964Z,16.90
2022-09-11T12:52:42.944Z,14.00